Flight Track Log - Related Links

Times and Time Zones

All times are in EDT time to prevent confusion due to time zone crossing. See the AWI3551 flight status page for this flight to view local times or setup timezone preferences in your user account.

Time Position Orientation Groundspeed Altitude Reporting Facility
EDT Latitude Longitude Course Direction KTS MPH feet Rate Location/Type
Fri 05:37:36 AM 42.9500 -78.7167 180° South 160 184 1,800  Level Buffalo TRACON
Fri 05:38:42 AM 43.0000 -78.6667 36° Northeast 191 220 4,200 1,969 Climbing Buffalo TRACON
Fri 05:39:44 AM 43.0392 -78.5864 56° Northeast 260 299 6,000 1,672 Climbing Cleveland Center
Fri 05:40:00 AM 42.6240 -78.6848 172° South  Level FlightAware Approximate
Fri 05:40:44 AM 43.0022 -78.5081 123° Southeast 279 321 7,600  Level Cleveland Center
Fri 05:41:00 AM 42.5213 -78.6647 173° South  Level FlightAware Approximate
Fri 05:41:44 AM 42.9233 -78.5192 186° South 220 253 9,700  Level Cleveland Center
Fri 05:42:00 AM 42.4182 -78.6500 180° South  Level FlightAware Approximate
Fri 05:42:44 AM 42.8297 -78.5308 185° South 269 310 12,600  Level Cleveland Center
Fri 05:43:44 AM 42.7361 -78.5478 188° South 307 353 14,900 2,100 Climbing Cleveland Center
Fri 05:44:44 AM 42.6447 -78.5622 187° South 329 379 16,800 1,850 Climbing Cleveland Center
Fri 05:45:44 AM 42.5511 -78.5736 185° South 341 392 18,600 1,900 Climbing Cleveland Center
Fri 05:46:44 AM 42.4431 -78.5883 186° South 354 407 20,600 1,750 Climbing Cleveland Center
Fri 05:47:44 AM 42.3431 -78.6028 186° South 354 407 22,100 1,200 Climbing Cleveland Center
Fri 05:48:44 AM 42.2433 -78.6142 185° South 359 413 23,000 450 Climbing Cleveland Center
Fri 05:49:44 AM 42.1478 -78.6283 186° South 366 421 23,000  Level Cleveland Center
Fri 05:50:44 AM 42.0456 -78.6258 179° South 373 429 23,000  Level Cleveland Center
Fri 05:51:44 AM 41.9414 -78.6264 180° South 373 429 23,000  Level Cleveland Center
Fri 05:52:44 AM 41.8306 -78.6214 178° South 383 441 23,000  Level Cleveland Center
Fri 05:53:44 AM 41.7194 -78.5747 163° South 411 473 23,000  Level Cleveland Center
Fri 05:54:44 AM 41.6117 -78.4975 152° Southeast 420 483 23,000  Level Cleveland Center
Fri 05:55:44 AM 41.5081 -78.4175 150° Southeast 425 489 23,000  Level Cleveland Center
Fri 05:56:44 AM 41.4022 -78.3408 151° Southeast 425 489 23,000  Level Cleveland Center
Fri 05:57:42 AM 41.2953 -78.2661 152° Southeast 426 490 23,000  Level New York Center
Fri 05:58:41 AM 41.1917 -78.1911 151° Southeast 433 498 23,000  Level New York Center
Fri 05:59:42 AM 41.0878 -78.1164 152° Southeast 433 498 23,000  Level New York Center
Fri 06:00:43 AM 40.9858 -78.0450 152° Southeast 433 498 23,000  Level New York Center
Fri 06:01:43 AM 40.8911 -77.9581 145° Southeast 428 493 23,000 -256 Level New York Center
Fri 06:02:40 AM 40.8131 -77.8372 130° Southeast 428 493 22,500 -763 Descending New York Center
Fri 06:03:41 AM 40.7306 -77.7136 131° Southeast 435 501 21,500 -992 Descending New York Center
Fri 06:04:41 AM 40.6539 -77.5992 131° Southeast 434 499 20,500 -992 Descending New York Center
Fri 06:05:42 AM 40.5794 -77.4825 130° Southeast 424 488 19,500 -992 Descending New York Center
Fri 06:06:42 AM 40.5100 -77.3803 132° Southeast 414 476 18,500 -750 Descending New York Center
Fri 06:07:42 AM 40.4664 -77.2286 111° Southeast 409 471 18,000 -254 Descending New York Center
Fri 06:08:40 AM 40.4356 -77.1056 108° East 398 458 18,000  Level New York Center
Fri 06:09:42 AM 40.3956 -76.9519 109° East 398 458 18,000  Level New York Center
Fri 06:10:43 AM 40.3622 -76.8319 110° East 393 452 18,000 -50 Level New York Center
Fri 06:11:41 AM 40.3275 -76.6928 108° East 399 459 17,900 -864 Descending New York Center
Fri 06:12:41 AM 40.2894 -76.5397 108° East 399 459 16,300 -1,475 Descending New York Center
Fri 06:13:43 AM 40.2578 -76.4147 108° East 399 459 14,900 -1,500 Descending New York Center
Fri 06:14:41 AM 40.2189 -76.2703 109° East 391 450 13,300 -1,513 Descending New York Center
Fri 06:15:42 AM 40.1889 -76.1483 108° East 379 436 11,900 -1,377 Descending New York Center
Fri 06:16:43 AM 40.1564 -76.0369 111° Southeast 332 382 10,500 -1,190 Descending New York Center
Fri 06:17:43 AM 40.1275 -75.9369 111° Southeast 318 366 9,500 -1,000 Descending New York Center
Fri 06:18:43 AM 40.0972 -75.8181 108° East 317 365 8,500 -763 Descending New York Center
Fri 06:19:41 AM 40.0806 -75.7167 102° East 317 365 8,000 -252 Descending New York Center
Fri 06:20:42 AM 40.0733 -75.5939 94° East 311 358 8,000  Level New York Center
Fri 06:21:41 AM 40.0669 -75.4906 95° East 311 358 8,000 -252 Level New York Center
Fri 06:22:41 AM 40.0614 -75.3681 93° East 316 364 7,500 -500 Descending New York Center
Fri 06:23:41 AM 40.0553 -75.2564 94° East 310 357 7,000 -645 Descending New York Center
Fri 06:24:42 AM 40.0214 -75.1619 115° Southeast 310 357 6,200 -590 Descending New York Center
Fri 06:25:43 AM 39.9981 -75.0631 107° East 280 322 5,800 -814 Descending New York Center
Fri 06:26:40 AM 40.0028 -74.9875 85° East 226 260 4,600 -908 Descending New York Center
Fri 06:27:42 AM 39.9431 -74.9647 164° South 202 232 4,000 -541 Descending New York Center
Fri 06:28:42 AM 39.9103 -75.0061 224° Southwest 163 188 3,500 -500 Descending New York Center

Login

Don't have an account? Register now (free) for customized features, flight alerts, and more!